sensor_id;sensor_type;location;lat;lon;timestamp;temperature;humidity
2625;DHT22;1322;53.256;10.386;2022-09-21T00:01:04;10.70;99.90
2625;DHT22;1322;53.256;10.386;2022-09-21T00:03:29;10.60;99.90
2625;DHT22;1322;53.256;10.386;2022-09-21T00:06:02;10.60;99.90
2625;DHT22;1322;53.256;10.386;2022-09-21T00:08:27;10.60;99.90
2625;DHT22;1322;53.256;10.386;2022-09-21T00:10:53;10.50;99.90
2625;DHT22;1322;53.256;10.386;2022-09-21T00:13:18;10.50;99.90
2625;DHT22;1322;53.256;10.386;2022-09-21T00:15:45;10.50;99.90
2625;DHT22;1322;53.256;10.386;2022-09-21T00:18:10;10.40;99.90
2625;DHT22;1322;53.256;10.386;2022-09-21T00:20:40;10.40;99.90
2625;DHT22;1322;53.256;10.386;2022-09-21T00:23:07;10.40;99.90
2625;DHT22;1322;53.256;10.386;2022-09-21T00:25:33;10.40;99.90
2625;DHT22;1322;53.256;10.386;2022-09-21T00:27:59;10.40;99.90
2625;DHT22;1322;53.256;10.386;2022-09-21T00:30:24;10.40;99.90
2625;DHT22;1322;53.256;10.386;2022-09-21T00:32:52;10.40;99.90
2625;DHT22;1322;53.256;10.386;2022-09-21T00:35:18;10.40;99.90
2625;DHT22;1322;53.256;10.386;2022-09-21T00:37:43;10.30;99.90
2625;DHT22;1322;53.256;10.386;2022-09-21T00:40:09;10.30;99.90
2625;DHT22;1322;53.256;10.386;2022-09-21T00:42:35;10.30;99.90
2625;DHT22;1322;53.256;10.386;2022-09-21T00:45:02;10.30;99.90
2625;DHT22;1322;53.256;10.386;2022-09-21T00:49:56;10.20;99.90
2625;DHT22;1322;53.256;10.386;2022-09-21T00:52:24;10.20;99.90
2625;DHT22;1322;53.256;10.386;2022-09-21T00:54:55;10.20;99.90
2625;DHT22;1322;53.256;10.386;2022-09-21T00:57:25;10.20;99.90
2625;DHT22;1322;53.256;10.386;2022-09-21T00:59:55;10.20;99.90
2625;DHT22;1322;53.256;10.386;2022-09-21T01:02:22;10.10;99.90
2625;DHT22;1322;53.256;10.386;2022-09-21T01:04:48;10.10;99.90
2625;DHT22;1322;53.256;10.386;2022-09-21T01:07:20;10.10;99.90
2625;DHT22;1322;53.256;10.386;2022-09-21T01:09:50;10.10;99.90
2625;DHT22;1322;53.256;10.386;2022-09-21T01:15:22;10.10;99.90
2625;DHT22;1322;53.256;10.386;2022-09-21T01:18:43;10.10;99.90
2625;DHT22;1322;53.256;10.386;2022-09-21T01:31:16;9.90;99.90
2625;DHT22;1322;53.256;10.386;2022-09-21T01:33:47;9.90;99.90
2625;DHT22;1322;53.256;10.386;2022-09-21T01:36:20;9.90;99.90
2625;DHT22;1322;53.256;10.386;2022-09-21T01:38:51;9.80;99.90
2625;DHT22;1322;53.256;10.386;2022-09-21T01:41:22;9.80;99.90
2625;DHT22;1322;53.256;10.386;2022-09-21T01:43:53;9.80;99.90
2625;DHT22;1322;53.256;10.386;2022-09-21T01:46:21;9.80;99.90
2625;DHT22;1322;53.256;10.386;2022-09-21T01:48:53;9.80;99.90
2625;DHT22;1322;53.256;10.386;2022-09-21T01:51:22;9.80;99.90
2625;DHT22;1322;53.256;10.386;2022-09-21T01:53:54;9.80;99.90
2625;DHT22;1322;53.256;10.386;2022-09-21T01:56:33;9.80;99.90
2625;DHT22;1322;53.256;10.386;2022-09-21T01:59:28;9.70;99.90
2625;DHT22;1322;53.256;10.386;2022-09-21T02:01:59;9.70;99.90
2625;DHT22;1322;53.256;10.386;2022-09-21T02:04:28;9.70;99.90
2625;DHT22;1322;53.256;10.386;2022-09-21T02:06:54;9.70;99.90
2625;DHT22;1322;53.256;10.386;2022-09-21T02:09:20;9.70;99.90
2625;DHT22;1322;53.256;10.386;2022-09-21T02:11:45;9.70;99.90
2625;DHT22;1322;53.256;10.386;2022-09-21T02:14:15;9.70;99.90
2625;DHT22;1322;53.256;10.386;2022-09-21T02:16:43;9.70;99.90
2625;DHT22;1322;53.256;10.386;2022-09-21T02:19:39;9.60;99.90
2625;DHT22;1322;53.256;10.386;2022-09-21T02:22:31;9.60;99.90
2625;DHT22;1322;53.256;10.386;2022-09-21T02:25:12;9.60;99.90
2625;DHT22;1322;53.256;10.386;2022-09-21T02:27:54;9.60;99.90
2625;DHT22;1322;53.256;10.386;2022-09-21T02:30:24;9.60;99.90
2625;DHT22;1322;53.256;10.386;2022-09-21T02:33:27;9.60;99.90
2625;DHT22;1322;53.256;10.386;2022-09-21T02:38:38;9.60;99.90
2625;DHT22;1322;53.256;10.386;2022-09-21T02:41:27;9.60;99.90
2625;DHT22;1322;53.256;10.386;2022-09-21T02:44:09;9.50;99.90
2625;DHT22;1322;53.256;10.386;2022-09-21T02:46:44;9.50;99.90
2625;DHT22;1322;53.256;10.386;2022-09-21T02:49:18;9.50;99.90
2625;DHT22;1322;53.256;10.386;2022-09-21T02:51:52;9.50;99.90
2625;DHT22;1322;53.256;10.386;2022-09-21T02:54:21;9.50;99.90
2625;DHT22;1322;53.256;10.386;2022-09-21T02:56:49;9.40;99.90
2625;DHT22;1322;53.256;10.386;2022-09-21T02:59:16;9.40;99.90
2625;DHT22;1322;53.256;10.386;2022-09-21T03:01:42;9.50;99.90
2625;DHT22;1322;53.256;10.386;2022-09-21T03:04:09;9.40;99.90
2625;DHT22;1322;53.256;10.386;2022-09-21T03:06:35;9.40;99.90
2625;DHT22;1322;53.256;10.386;2022-09-21T03:09:01;9.30;99.90
2625;DHT22;1322;53.256;10.386;2022-09-21T03:11:27;9.40;99.90
2625;DHT22;1322;53.256;10.386;2022-09-21T03:13:52;9.30;99.90
2625;DHT22;1322;53.256;10.386;2022-09-21T03:16:18;9.30;99.90
2625;DHT22;1322;53.256;10.386;2022-09-21T03:18:44;9.30;99.90
2625;DHT22;1322;53.256;10.386;2022-09-21T03:21:10;9.30;99.90
2625;DHT22;1322;53.256;10.386;2022-09-21T03:23:37;9.30;99.90
2625;DHT22;1322;53.256;10.386;2022-09-21T03:26:03;9.30;99.90
2625;DHT22;1322;53.256;10.386;2022-09-21T03:28:29;9.00;99.90
2625;DHT22;1322;53.256;10.386;2022-09-21T03:30:55;9.20;99.90
2625;DHT22;1322;53.256;10.386;2022-09-21T03:33:20;9.20;99.90
2625;DHT22;1322;53.256;10.386;2022-09-21T03:35:49;9.20;99.90
2625;DHT22;1322;53.256;10.386;2022-09-21T03:38:15;9.20;99.90
2625;DHT22;1322;53.256;10.386;2022-09-21T03:40:44;9.10;99.90
2625;DHT22;1322;53.256;10.386;2022-09-21T03:43:11;9.10;99.90
2625;DHT22;1322;53.256;10.386;2022-09-21T03:45:36;9.10;99.90
2625;DHT22;1322;53.256;10.386;2022-09-21T03:48:02;9.10;99.90
2625;DHT22;1322;53.256;10.386;2022-09-21T03:50:29;9.10;99.90
2625;DHT22;1322;53.256;10.386;2022-09-21T03:52:55;9.10;99.90
2625;DHT22;1322;53.256;10.386;2022-09-21T03:55:21;9.10;99.90
2625;DHT22;1322;53.256;10.386;2022-09-21T03:57:47;9.00;99.90
2625;DHT22;1322;53.256;10.386;2022-09-21T04:02:40;8.90;99.90
2625;DHT22;1322;53.256;10.386;2022-09-21T04:05:07;8.90;99.90
2625;DHT22;1322;53.256;10.386;2022-09-21T04:07:34;8.90;99.90
2625;DHT22;1322;53.256;10.386;2022-09-21T04:10:03;8.90;99.90
2625;DHT22;1322;53.256;10.386;2022-09-21T04:12:30;8.90;99.90
2625;DHT22;1322;53.256;10.386;2022-09-21T04:14:56;8.90;99.90
2625;DHT22;1322;53.256;10.386;2022-09-21T04:17:22;8.90;99.90
2625;DHT22;1322;53.256;10.386;2022-09-21T04:19:47;8.90;99.90
2625;DHT22;1322;53.256;10.386;2022-09-21T04:22:13;8.90;99.90
2625;DHT22;1322;53.256;10.386;2022-09-21T04:24:39;8.90;99.90
2625;DHT22;1322;53.256;10.386;2022-09-21T04:27:08;8.80;99.90
2625;DHT22;1322;53.256;10.386;2022-09-21T04:29:34;8.80;99.90
2625;DHT22;1322;53.256;10.386;2022-09-21T04:31:59;8.80;99.90
2625;DHT22;1322;53.256;10.386;2022-09-21T04:34:25;8.70;99.90
2625;DHT22;1322;53.256;10.386;2022-09-21T04:36:50;8.70;99.90
2625;DHT22;1322;53.256;10.386;2022-09-21T04:39:18;8.70;99.90
2625;DHT22;1322;53.256;10.386;2022-09-21T04:41:43;8.70;99.90
2625;DHT22;1322;53.256;10.386;2022-09-21T04:44:09;8.70;99.90
2625;DHT22;1322;53.256;10.386;2022-09-21T04:46:35;8.70;99.90
2625;DHT22;1322;53.256;10.386;2022-09-21T04:49:00;8.70;99.90
2625;DHT22;1322;53.256;10.386;2022-09-21T04:51:26;8.70;99.90
2625;DHT22;1322;53.256;10.386;2022-09-21T04:53:52;8.70;99.90
2625;DHT22;1322;53.256;10.386;2022-09-21T04:56:17;8.70;99.90
2625;DHT22;1322;53.256;10.386;2022-09-21T04:58:43;8.70;99.90
2625;DHT22;1322;53.256;10.386;2022-09-21T05:01:09;8.70;99.90
2625;DHT22;1322;53.256;10.386;2022-09-21T05:03:36;8.70;99.90
2625;DHT22;1322;53.256;10.386;2022-09-21T05:06:02;8.70;99.90
2625;DHT22;1322;53.256;10.386;2022-09-21T05:08:28;8.70;99.90
2625;DHT22;1322;53.256;10.386;2022-09-21T05:11:15;8.70;99.90
2625;DHT22;1322;53.256;10.386;2022-09-21T05:13:43;8.70;99.90
2625;DHT22;1322;53.256;10.386;2022-09-21T05:16:09;8.70;99.90
2625;DHT22;1322;53.256;10.386;2022-09-21T05:18:35;8.70;99.90
2625;DHT22;1322;53.256;10.386;2022-09-21T05:21:02;8.80;99.90
2625;DHT22;1322;53.256;10.386;2022-09-21T05:23:29;8.80;99.90
2625;DHT22;1322;53.256;10.386;2022-09-21T05:25:56;8.80;99.90
2625;DHT22;1322;53.256;10.386;2022-09-21T05:28:22;8.90;99.90
2625;DHT22;1322;53.256;10.386;2022-09-21T05:33:40;9.00;99.90
2625;DHT22;1322;53.256;10.386;2022-09-21T05:36:39;9.00;99.90
2625;DHT22;1322;53.256;10.386;2022-09-21T05:39:06;9.10;99.90
2625;DHT22;1322;53.256;10.386;2022-09-21T05:41:32;9.30;99.90
2625;DHT22;1322;53.256;10.386;2022-09-21T05:43:58;9.50;99.90
2625;DHT22;1322;53.256;10.386;2022-09-21T05:49:35;10.00;99.90
2625;DHT22;1322;53.256;10.386;2022-09-21T06:01:21;11.20;99.90
2625;DHT22;1322;53.256;10.386;2022-09-21T06:03:50;11.50;99.90
2625;DHT22;1322;53.256;10.386;2022-09-21T06:06:17;11.80;99.90
2625;DHT22;1322;53.256;10.386;2022-09-21T06:08:43;12.00;99.90
2625;DHT22;1322;53.256;10.386;2022-09-21T06:11:09;12.20;99.90
2625;DHT22;1322;53.256;10.386;2022-09-21T06:13:34;12.50;99.90
2625;DHT22;1322;53.256;10.386;2022-09-21T06:16:02;12.60;99.90
2625;DHT22;1322;53.256;10.386;2022-09-21T06:18:28;12.80;99.90
2625;DHT22;1322;53.256;10.386;2022-09-21T06:20:53;13.00;99.90
2625;DHT22;1322;53.256;10.386;2022-09-21T06:23:19;13.00;99.90
2625;DHT22;1322;53.256;10.386;2022-09-21T06:25:52;13.20;99.90
2625;DHT22;1322;53.256;10.386;2022-09-21T06:28:18;13.30;99.90
2625;DHT22;1322;53.256;10.386;2022-09-21T06:30:53;13.40;99.90
2625;DHT22;1322;53.256;10.386;2022-09-21T06:33:19;13.40;99.90
2625;DHT22;1322;53.256;10.386;2022-09-21T06:38:17;13.40;99.90
2625;DHT22;1322;53.256;10.386;2022-09-21T06:40:43;13.40;99.90
2625;DHT22;1322;53.256;10.386;2022-09-21T06:43:08;13.50;99.90
2625;DHT22;1322;53.256;10.386;2022-09-21T06:45:34;13.50;99.90
2625;DHT22;1322;53.256;10.386;2022-09-21T06:48:00;13.50;99.90
2625;DHT22;1322;53.256;10.386;2022-09-21T06:50:25;13.60;99.90
2625;DHT22;1322;53.256;10.386;2022-09-21T06:52:51;13.70;99.90
2625;DHT22;1322;53.256;10.386;2022-09-21T06:55:16;13.80;99.90
2625;DHT22;1322;53.256;10.386;2022-09-21T06:57:42;13.80;99.90
2625;DHT22;1322;53.256;10.386;2022-09-21T07:00:10;13.90;99.90
2625;DHT22;1322;53.256;10.386;2022-09-21T07:02:36;13.90;99.90
2625;DHT22;1322;53.256;10.386;2022-09-21T07:05:02;14.00;99.90
2625;DHT22;1322;53.256;10.386;2022-09-21T07:07:28;14.10;99.90
2625;DHT22;1322;53.256;10.386;2022-09-21T07:09:57;14.10;99.90
2625;DHT22;1322;53.256;10.386;2022-09-21T07:12:26;14.20;99.90
2625;DHT22;1322;53.256;10.386;2022-09-21T07:14:52;14.20;99.90
2625;DHT22;1322;53.256;10.386;2022-09-21T07:17:17;14.30;99.90
2625;DHT22;1322;53.256;10.386;2022-09-21T07:19:43;14.30;99.90
2625;DHT22;1322;53.256;10.386;2022-09-21T07:22:09;14.40;99.90
2625;DHT22;1322;53.256;10.386;2022-09-21T07:24:34;14.50;99.90
2625;DHT22;1322;53.256;10.386;2022-09-21T07:27:00;14.60;99.90
2625;DHT22;1322;53.256;10.386;2022-09-21T07:29:26;14.60;99.90
2625;DHT22;1322;53.256;10.386;2022-09-21T07:31:51;14.70;99.90
2625;DHT22;1322;53.256;10.386;2022-09-21T07:34:17;14.80;99.90
2625;DHT22;1322;53.256;10.386;2022-09-21T07:36:42;14.70;99.90
2625;DHT22;1322;53.256;10.386;2022-09-21T07:39:09;14.80;99.90
2625;DHT22;1322;53.256;10.386;2022-09-21T07:41:35;14.90;99.90
2625;DHT22;1322;53.256;10.386;2022-09-21T07:44:01;14.90;99.90
2625;DHT22;1322;53.256;10.386;2022-09-21T07:46:27;14.90;99.90
2625;DHT22;1322;53.256;10.386;2022-09-21T07:48:53;14.80;99.90
2625;DHT22;1322;53.256;10.386;2022-09-21T07:51:19;14.80;99.90
2625;DHT22;1322;53.256;10.386;2022-09-21T07:53:45;14.90;99.90
2625;DHT22;1322;53.256;10.386;2022-09-21T07:56:13;14.90;99.90
2625;DHT22;1322;53.256;10.386;2022-09-21T07:58:39;14.80;99.90
2625;DHT22;1322;53.256;10.386;2022-09-21T08:01:24;14.80;99.90
2625;DHT22;1322;53.256;10.386;2022-09-21T08:03:52;14.90;99.90
2625;DHT22;1322;53.256;10.386;2022-09-21T08:06:19;14.90;99.90
2625;DHT22;1322;53.256;10.386;2022-09-21T08:08:45;15.00;99.90
2625;DHT22;1322;53.256;10.386;2022-09-21T08:11:15;15.10;99.90
2625;DHT22;1322;53.256;10.386;2022-09-21T08:13:41;15.20;99.90
2625;DHT22;1322;53.256;10.386;2022-09-21T08:16:07;15.20;99.90
2625;DHT22;1322;53.256;10.386;2022-09-21T08:18:36;15.30;99.90
2625;DHT22;1322;53.256;10.386;2022-09-21T08:21:02;15.40;99.90
2625;DHT22;1322;53.256;10.386;2022-09-21T08:23:28;15.50;99.90
2625;DHT22;1322;53.256;10.386;2022-09-21T08:26:02;15.50;99.90
2625;DHT22;1322;53.256;10.386;2022-09-21T08:28:30;15.50;99.90
2625;DHT22;1322;53.256;10.386;2022-09-21T08:31:04;15.60;99.90
2625;DHT22;1322;53.256;10.386;2022-09-21T08:33:30;15.70;99.90
2625;DHT22;1322;53.256;10.386;2022-09-21T08:35:58;15.70;99.90
2625;DHT22;1322;53.256;10.386;2022-09-21T08:38:24;15.60;99.90
2625;DHT22;1322;53.256;10.386;2022-09-21T08:40:51;15.70;99.90
2625;DHT22;1322;53.256;10.386;2022-09-21T08:45:50;15.80;99.90
2625;DHT22;1322;53.256;10.386;2022-09-21T08:48:21;15.90;99.90
2625;DHT22;1322;53.256;10.386;2022-09-21T08:50:58;16.00;99.90
2625;DHT22;1322;53.256;10.386;2022-09-21T08:53:32;16.10;99.90
2625;DHT22;1322;53.256;10.386;2022-09-21T08:55:58;16.20;99.90
2625;DHT22;1322;53.256;10.386;2022-09-21T08:58:25;16.30;99.90
2625;DHT22;1322;53.256;10.386;2022-09-21T09:09:04;16.40;99.90
2625;DHT22;1322;53.256;10.386;2022-09-21T09:14:48;16.60;99.90
2625;DHT22;1322;53.256;10.386;2022-09-21T09:17:39;16.50;99.90
2625;DHT22;1322;53.256;10.386;2022-09-21T09:20:15;16.50;99.90
2625;DHT22;1322;53.256;10.386;2022-09-21T09:22:46;16.30;99.90
2625;DHT22;1322;53.256;10.386;2022-09-21T09:25:23;16.30;99.90
2625;DHT22;1322;53.256;10.386;2022-09-21T09:27:56;16.30;99.90
2625;DHT22;1322;53.256;10.386;2022-09-21T09:30:25;16.10;99.90
2625;DHT22;1322;53.256;10.386;2022-09-21T09:32:58;16.20;99.90
2625;DHT22;1322;53.256;10.386;2022-09-21T09:36:00;16.30;99.90
2625;DHT22;1322;53.256;10.386;2022-09-21T09:38:51;16.40;99.90
2625;DHT22;1322;53.256;10.386;2022-09-21T09:49:46;16.30;99.90
2625;DHT22;1322;53.256;10.386;2022-09-21T09:52:02;16.10;99.90
2625;DHT22;1322;53.256;10.386;2022-09-21T09:54:33;16.10;99.90
2625;DHT22;1322;53.256;10.386;2022-09-21T09:57:01;16.30;99.90
2625;DHT22;1322;53.256;10.386;2022-09-21T09:59:30;16.50;99.90
2625;DHT22;1322;53.256;10.386;2022-09-21T10:04:28;16.70;99.90
2625;DHT22;1322;53.256;10.386;2022-09-21T10:06:54;16.70;99.90
2625;DHT22;1322;53.256;10.386;2022-09-21T10:09:27;16.60;99.90
2625;DHT22;1322;53.256;10.386;2022-09-21T10:11:57;16.60;99.90
2625;DHT22;1322;53.256;10.386;2022-09-21T10:14:24;16.60;99.90
2625;DHT22;1322;53.256;10.386;2022-09-21T10:16:52;16.60;99.90
2625;DHT22;1322;53.256;10.386;2022-09-21T10:19:24;16.40;99.90
2625;DHT22;1322;53.256;10.386;2022-09-21T10:22:00;16.40;99.90
2625;DHT22;1322;53.256;10.386;2022-09-21T10:27:13;16.50;99.90
2625;DHT22;1322;53.256;10.386;2022-09-21T10:29:47;16.60;99.90
2625;DHT22;1322;53.256;10.386;2022-09-21T10:34:40;16.90;99.90
2625;DHT22;1322;53.256;10.386;2022-09-21T10:37:29;17.20;99.90
2625;DHT22;1322;53.256;10.386;2022-09-21T10:39:55;17.20;99.90
2625;DHT22;1322;53.256;10.386;2022-09-21T10:42:22;17.30;99.90
2625;DHT22;1322;53.256;10.386;2022-09-21T10:44:52;17.20;99.90
2625;DHT22;1322;53.256;10.386;2022-09-21T10:47:29;17.10;99.90
2625;DHT22;1322;53.256;10.386;2022-09-21T10:50:01;17.00;99.90
2625;DHT22;1322;53.256;10.386;2022-09-21T10:52:41;17.00;99.90
2625;DHT22;1322;53.256;10.386;2022-09-21T10:55:19;16.90;99.90
2625;DHT22;1322;53.256;10.386;2022-09-21T10:57:47;16.80;99.90
2625;DHT22;1322;53.256;10.386;2022-09-21T11:02:48;16.80;99.90
2625;DHT22;1322;53.256;10.386;2022-09-21T11:05:22;16.80;99.90
2625;DHT22;1322;53.256;10.386;2022-09-21T11:10:58;16.90;99.90
2625;DHT22;1322;53.256;10.386;2022-09-21T11:13:32;16.90;99.90
2625;DHT22;1322;53.256;10.386;2022-09-21T11:16:39;17.00;99.90
2625;DHT22;1322;53.256;10.386;2022-09-21T11:21:54;17.10;99.90
2625;DHT22;1322;53.256;10.386;2022-09-21T15:23:56;17.50;99.90
2625;DHT22;1322;53.256;10.386;2022-09-21T15:26:26;17.40;99.90
2625;DHT22;1322;53.256;10.386;2022-09-21T15:28:59;17.40;99.90
2625;DHT22;1322;53.256;10.386;2022-09-21T15:31:34;17.30;99.90
2625;DHT22;1322;53.256;10.386;2022-09-21T15:34:03;17.30;99.90
2625;DHT22;1322;53.256;10.386;2022-09-21T15:36:30;17.40;99.90
2625;DHT22;1322;53.256;10.386;2022-09-21T15:38:56;17.40;99.90
2625;DHT22;1322;53.256;10.386;2022-09-21T15:41:40;17.40;99.90
2625;DHT22;1322;53.256;10.386;2022-09-21T15:44:31;17.40;99.90
2625;DHT22;1322;53.256;10.386;2022-09-21T15:46:57;17.40;99.90
2625;DHT22;1322;53.256;10.386;2022-09-21T15:49:26;17.30;99.90
2625;DHT22;1322;53.256;10.386;2022-09-21T15:54:32;17.30;99.90
2625;DHT22;1322;53.256;10.386;2022-09-21T15:57:01;17.30;99.90
2625;DHT22;1322;53.256;10.386;2022-09-21T15:59:29;17.30;99.90
2625;DHT22;1322;53.256;10.386;2022-09-21T16:02:00;17.30;99.90
2625;DHT22;1322;53.256;10.386;2022-09-21T16:04:35;17.20;99.90
2625;DHT22;1322;53.256;10.386;2022-09-21T16:07:03;17.20;99.90
2625;DHT22;1322;53.256;10.386;2022-09-21T16:09:42;17.20;99.90
2625;DHT22;1322;53.256;10.386;2022-09-21T16:12:39;17.20;99.90
2625;DHT22;1322;53.256;10.386;2022-09-21T16:17:37;17.10;99.90
2625;DHT22;1322;53.256;10.386;2022-09-21T16:20:18;17.00;99.90
2625;DHT22;1322;53.256;10.386;2022-09-21T16:22:46;17.00;99.90
2625;DHT22;1322;53.256;10.386;2022-09-21T16:25:31;16.90;99.90
2625;DHT22;1322;53.256;10.386;2022-09-21T16:30:53;16.80;99.90
2625;DHT22;1322;53.256;10.386;2022-09-21T16:33:57;16.80;99.90
2625;DHT22;1322;53.256;10.386;2022-09-21T16:38:56;16.80;99.90
2625;DHT22;1322;53.256;10.386;2022-09-21T16:41:42;16.70;99.90
2625;DHT22;1322;53.256;10.386;2022-09-21T16:44:10;16.70;99.90
2625;DHT22;1322;53.256;10.386;2022-09-21T16:46:41;16.60;99.90
2625;DHT22;1322;53.256;10.386;2022-09-21T16:49:12;16.60;99.90
2625;DHT22;1322;53.256;10.386;2022-09-21T16:51:44;16.60;99.90
2625;DHT22;1322;53.256;10.386;2022-09-21T16:54:11;16.50;99.90
2625;DHT22;1322;53.256;10.386;2022-09-21T16:56:38;16.50;99.90
2625;DHT22;1322;53.256;10.386;2022-09-21T16:59:15;16.40;99.90
2625;DHT22;1322;53.256;10.386;2022-09-21T17:01:43;16.40;99.90
2625;DHT22;1322;53.256;10.386;2022-09-21T17:04:11;16.30;99.90
2625;DHT22;1322;53.256;10.386;2022-09-21T17:06:38;16.30;99.90
2625;DHT22;1322;53.256;10.386;2022-09-21T17:11:45;16.20;99.90
2625;DHT22;1322;53.256;10.386;2022-09-21T17:14:13;16.10;99.90
2625;DHT22;1322;53.256;10.386;2022-09-21T17:16:51;16.00;99.90
2625;DHT22;1322;53.256;10.386;2022-09-21T17:19:18;15.90;99.90
2625;DHT22;1322;53.256;10.386;2022-09-21T17:21:44;15.90;99.90
2625;DHT22;1322;53.256;10.386;2022-09-21T17:24:11;15.80;99.90
2625;DHT22;1322;53.256;10.386;2022-09-21T17:26:37;15.70;99.90
2625;DHT22;1322;53.256;10.386;2022-09-21T17:29:13;15.60;99.90
2625;DHT22;1322;53.256;10.386;2022-09-21T17:31:40;15.60;99.90
2625;DHT22;1322;53.256;10.386;2022-09-21T17:34:10;15.50;99.90
2625;DHT22;1322;53.256;10.386;2022-09-21T17:36:37;15.40;99.90
2625;DHT22;1322;53.256;10.386;2022-09-21T17:39:02;15.40;99.90
2625;DHT22;1322;53.256;10.386;2022-09-21T17:41:55;15.30;99.90
2625;DHT22;1322;53.256;10.386;2022-09-21T17:47:26;15.20;99.90
2625;DHT22;1322;53.256;10.386;2022-09-21T17:52:32;15.00;99.90
2625;DHT22;1322;53.256;10.386;2022-09-21T17:55:17;14.90;99.90
2625;DHT22;1322;53.256;10.386;2022-09-21T18:05:47;14.70;99.90
2625;DHT22;1322;53.256;10.386;2022-09-21T18:08:13;14.70;99.90
2625;DHT22;1322;53.256;10.386;2022-09-21T18:10:47;14.60;99.90
2625;DHT22;1322;53.256;10.386;2022-09-21T18:13:34;14.60;99.90
2625;DHT22;1322;53.256;10.386;2022-09-21T18:16:27;14.60;99.90
2625;DHT22;1322;53.256;10.386;2022-09-21T18:21:23;14.40;99.90
2625;DHT22;1322;53.256;10.386;2022-09-21T18:26:26;14.30;99.90
2625;DHT22;1322;53.256;10.386;2022-09-21T18:28:52;14.30;99.90
2625;DHT22;1322;53.256;10.386;2022-09-21T18:39:36;14.20;99.90
2625;DHT22;1322;53.256;10.386;2022-09-21T18:45:02;14.10;99.90
2625;DHT22;1322;53.256;10.386;2022-09-21T18:53:08;13.90;99.90
2625;DHT22;1322;53.256;10.386;2022-09-21T18:55:39;13.90;99.90
2625;DHT22;1322;53.256;10.386;2022-09-21T18:58:05;13.90;99.90
2625;DHT22;1322;53.256;10.386;2022-09-21T19:00:30;13.80;99.90
2625;DHT22;1322;53.256;10.386;2022-09-21T19:02:58;13.80;99.90
2625;DHT22;1322;53.256;10.386;2022-09-21T19:05:24;13.80;99.90
2625;DHT22;1322;53.256;10.386;2022-09-21T19:10:43;13.80;99.90
2625;DHT22;1322;53.256;10.386;2022-09-21T19:18:43;13.70;99.90
2625;DHT22;1322;53.256;10.386;2022-09-21T19:21:31;13.70;99.90
2625;DHT22;1322;53.256;10.386;2022-09-21T19:25:03;13.70;99.90
2625;DHT22;1322;53.256;10.386;2022-09-21T19:27:13;13.70;99.90
2625;DHT22;1322;53.256;10.386;2022-09-21T19:29:51;13.60;99.90
2625;DHT22;1322;53.256;10.386;2022-09-21T19:32:33;13.60;99.90
2625;DHT22;1322;53.256;10.386;2022-09-21T19:35:26;13.60;99.90
2625;DHT22;1322;53.256;10.386;2022-09-21T19:37:57;13.60;99.90
2625;DHT22;1322;53.256;10.386;2022-09-21T19:40:29;13.60;99.90
2625;DHT22;1322;53.256;10.386;2022-09-21T19:43:19;13.50;99.90
2625;DHT22;1322;53.256;10.386;2022-09-21T19:46:09;13.50;99.90
2625;DHT22;1322;53.256;10.386;2022-09-21T19:48:44;13.50;99.90
2625;DHT22;1322;53.256;10.386;2022-09-21T19:54:16;13.50;99.90
2625;DHT22;1322;53.256;10.386;2022-09-21T19:57:03;13.50;99.90
2625;DHT22;1322;53.256;10.386;2022-09-21T19:59:50;13.50;99.90
2625;DHT22;1322;53.256;10.386;2022-09-21T20:02:21;13.60;99.90
2625;DHT22;1322;53.256;10.386;2022-09-21T20:04:55;13.60;99.90
2625;DHT22;1322;53.256;10.386;2022-09-21T20:19:13;13.60;99.90
2625;DHT22;1322;53.256;10.386;2022-09-21T20:21:43;13.60;99.90
2625;DHT22;1322;53.256;10.386;2022-09-21T20:24:38;13.70;99.90
2625;DHT22;1322;53.256;10.386;2022-09-21T20:29:49;13.60;99.90
2625;DHT22;1322;53.256;10.386;2022-09-21T20:32:15;13.60;99.90
2625;DHT22;1322;53.256;10.386;2022-09-21T20:34:41;13.50;99.90
2625;DHT22;1322;53.256;10.386;2022-09-21T20:37:13;13.50;99.90
2625;DHT22;1322;53.256;10.386;2022-09-21T20:39:39;13.40;99.90
2625;DHT22;1322;53.256;10.386;2022-09-21T20:42:05;13.30;99.90
2625;DHT22;1322;53.256;10.386;2022-09-21T20:44:30;13.30;99.90
2625;DHT22;1322;53.256;10.386;2022-09-21T20:46:56;13.20;99.90
2625;DHT22;1322;53.256;10.386;2022-09-21T20:49:21;13.20;99.90
2625;DHT22;1322;53.256;10.386;2022-09-21T20:51:47;13.10;99.90
2625;DHT22;1322;53.256;10.386;2022-09-21T20:54:13;13.10;99.90
2625;DHT22;1322;53.256;10.386;2022-09-21T20:56:38;13.10;99.90
2625;DHT22;1322;53.256;10.386;2022-09-21T20:59:05;13.00;99.90
2625;DHT22;1322;53.256;10.386;2022-09-21T21:01:30;13.00;99.90
2625;DHT22;1322;53.256;10.386;2022-09-21T21:03:56;12.90;99.90
2625;DHT22;1322;53.256;10.386;2022-09-21T21:06:29;12.90;99.90
2625;DHT22;1322;53.256;10.386;2022-09-21T21:08:59;12.80;99.90
2625;DHT22;1322;53.256;10.386;2022-09-21T21:11:24;12.80;99.90
2625;DHT22;1322;53.256;10.386;2022-09-21T21:13:53;12.80;99.90
2625;DHT22;1322;53.256;10.386;2022-09-21T21:16:18;12.80;99.90
2625;DHT22;1322;53.256;10.386;2022-09-21T21:18:44;12.70;99.90
2625;DHT22;1322;53.256;10.386;2022-09-21T21:21:09;12.70;99.90
2625;DHT22;1322;53.256;10.386;2022-09-21T21:23:35;12.60;99.90
2625;DHT22;1322;53.256;10.386;2022-09-21T21:26:21;12.50;99.90
2625;DHT22;1322;53.256;10.386;2022-09-21T21:28:46;12.30;99.90
2625;DHT22;1322;53.256;10.386;2022-09-21T21:31:13;12.30;99.90
2625;DHT22;1322;53.256;10.386;2022-09-21T21:33:39;12.30;99.90
2625;DHT22;1322;53.256;10.386;2022-09-21T21:36:05;12.20;99.90
2625;DHT22;1322;53.256;10.386;2022-09-21T21:38:32;12.20;99.90
2625;DHT22;1322;53.256;10.386;2022-09-21T21:40:59;12.20;99.90
2625;DHT22;1322;53.256;10.386;2022-09-21T21:43:24;12.20;99.90
2625;DHT22;1322;53.256;10.386;2022-09-21T21:45:53;12.20;99.90
2625;DHT22;1322;53.256;10.386;2022-09-21T21:48:19;12.20;99.90
2625;DHT22;1322;53.256;10.386;2022-09-21T21:50:45;12.20;99.90
2625;DHT22;1322;53.256;10.386;2022-09-21T21:53:11;12.20;99.90
2625;DHT22;1322;53.256;10.386;2022-09-21T21:55:36;12.10;99.90
2625;DHT22;1322;53.256;10.386;2022-09-21T21:58:02;12.10;99.90
2625;DHT22;1322;53.256;10.386;2022-09-21T22:00:27;12.10;99.90
2625;DHT22;1322;53.256;10.386;2022-09-21T22:02:56;12.00;99.90
2625;DHT22;1322;53.256;10.386;2022-09-21T22:05:22;12.00;99.90
2625;DHT22;1322;53.256;10.386;2022-09-21T22:07:47;12.00;99.90
2625;DHT22;1322;53.256;10.386;2022-09-21T22:10:13;12.00;99.90
2625;DHT22;1322;53.256;10.386;2022-09-21T22:12:39;12.00;99.90
2625;DHT22;1322;53.256;10.386;2022-09-21T22:15:04;12.00;99.90
2625;DHT22;1322;53.256;10.386;2022-09-21T22:17:30;11.90;99.90
2625;DHT22;1322;53.256;10.386;2022-09-21T22:19:56;11.90;99.90
2625;DHT22;1322;53.256;10.386;2022-09-21T22:22:22;11.80;99.90
2625;DHT22;1322;53.256;10.386;2022-09-21T22:24:47;11.80;99.90
2625;DHT22;1322;53.256;10.386;2022-09-21T22:27:13;11.80;99.90
2625;DHT22;1322;53.256;10.386;2022-09-21T22:29:38;11.80;99.90
2625;DHT22;1322;53.256;10.386;2022-09-21T22:32:04;11.70;99.90
2625;DHT22;1322;53.256;10.386;2022-09-21T22:34:30;11.70;99.90
2625;DHT22;1322;53.256;10.386;2022-09-21T22:36:57;11.70;99.90
2625;DHT22;1322;53.256;10.386;2022-09-21T22:39:23;11.70;99.90